createdAt,value
2024-05-09T00:00:22.162Z,2.70
2024-05-09T00:00:47.960Z,2.80
2024-05-09T00:01:14.258Z,2.50
2024-05-09T00:01:47.207Z,3.00
2024-05-09T00:02:19.925Z,2.90
2024-05-09T00:02:52.665Z,2.60
2024-05-09T00:03:25.345Z,2.90
2024-05-09T00:03:58.113Z,2.60
2024-05-09T00:04:30.788Z,3.00
2024-05-09T00:05:03.670Z,2.80
2024-05-09T00:05:37.183Z,2.80
2024-05-09T00:06:03.802Z,3.00
2024-05-09T00:06:36.533Z,3.10
2024-05-09T00:07:09.215Z,2.50
2024-05-09T00:07:41.930Z,2.80
2024-05-09T00:08:14.633Z,2.70
2024-05-09T00:08:47.502Z,2.70
2024-05-09T00:09:20.149Z,2.70
2024-05-09T00:09:52.830Z,2.70
2024-05-09T00:10:33.326Z,2.70
2024-05-09T00:10:57.650Z,3.00
2024-05-09T00:11:23.950Z,2.90
2024-05-09T00:11:56.933Z,2.80
2024-05-09T00:12:29.644Z,2.90
2024-05-09T00:13:02.323Z,2.90
2024-05-09T00:13:34.978Z,2.90
2024-05-09T00:14:07.657Z,2.90
2024-05-09T00:14:40.362Z,3.10
2024-05-09T00:15:13.201Z,2.80
2024-05-09T00:15:45.851Z,3.10
2024-05-09T00:16:18.523Z,2.60
2024-05-09T00:16:51.381Z,2.90
2024-05-09T00:17:24.189Z,2.80
2024-05-09T00:17:57.074Z,3.00
2024-05-09T00:18:30.220Z,2.90
2024-05-09T00:18:56.580Z,2.90
2024-05-09T00:19:29.439Z,2.80
2024-05-09T00:20:02.204Z,2.90
2024-05-09T00:20:38.797Z,2.80
2024-05-09T00:21:07.049Z,2.70
2024-05-09T00:21:33.269Z,2.80
2024-05-09T00:22:05.950Z,2.70
2024-05-09T00:22:38.636Z,3.10
2024-05-09T00:23:12.542Z,3.00
2024-05-09T00:23:42.428Z,2.80
2024-05-09T00:24:15.079Z,2.80
2024-05-09T00:24:47.760Z,2.80
2024-05-09T00:25:20.415Z,2.70
2024-05-09T00:25:53.159Z,2.60
2024-05-09T00:26:25.833Z,2.80
2024-05-09T00:26:58.503Z,2.80
2024-05-09T00:27:31.175Z,3.10
2024-05-09T00:28:03.854Z,3.00
2024-05-09T00:28:36.519Z,2.80
2024-05-09T00:29:09.232Z,2.80
2024-05-09T00:29:41.891Z,2.60
2024-05-09T00:30:21.380Z,2.90
2024-05-09T00:30:46.666Z,2.80
2024-05-09T00:31:12.829Z,2.50
2024-05-09T00:31:45.523Z,2.70
2024-05-09T00:32:18.415Z,2.70
2024-05-09T00:32:51.332Z,2.60
2024-05-09T00:33:17.977Z,2.70
2024-05-09T00:33:44.406Z,2.80
2024-05-09T00:34:17.360Z,2.90
2024-05-09T00:34:50.084Z,2.50
2024-05-09T00:35:22.792Z,2.80
2024-05-09T00:35:55.561Z,2.40
2024-05-09T00:36:28.243Z,2.90
2024-05-09T00:37:00.901Z,2.80
2024-05-09T00:37:33.577Z,2.60
2024-05-09T00:38:06.642Z,2.30
2024-05-09T00:38:33.097Z,2.70
2024-05-09T00:39:05.862Z,2.60
2024-05-09T00:39:38.645Z,2.40
2024-05-09T00:40:18.327Z,2.60
2024-05-09T00:40:43.898Z,2.90
2024-05-09T00:41:10.134Z,2.70
2024-05-09T00:41:42.866Z,2.70
2024-05-09T00:42:15.513Z,2.70
2024-05-09T00:42:48.188Z,2.60
2024-05-09T00:43:20.860Z,2.50
2024-05-09T00:43:53.628Z,2.60
2024-05-09T00:44:26.372Z,2.60
2024-05-09T00:44:59.078Z,2.90
2024-05-09T00:45:31.808Z,2.60
2024-05-09T00:46:04.970Z,2.60
2024-05-09T00:46:31.122Z,2.70
2024-05-09T00:47:03.963Z,2.50
2024-05-09T00:47:35.076Z,2.70
2024-05-09T00:48:09.442Z,2.60
2024-05-09T00:48:36.849Z,2.70
2024-05-09T00:49:09.712Z,2.60
2024-05-09T00:49:42.650Z,2.60
2024-05-09T00:50:12.864Z,2.70
2024-05-09T00:50:41.800Z,2.70
2024-05-09T00:51:08.368Z,2.80
2024-05-09T00:51:41.054Z,2.60
2024-05-09T00:52:13.706Z,2.50
2024-05-09T00:52:46.442Z,2.70
2024-05-09T00:53:19.295Z,2.70
2024-05-09T00:53:52.046Z,2.50
2024-05-09T00:54:24.718Z,2.80
2024-05-09T00:54:57.385Z,2.50
2024-05-09T00:55:30.076Z,2.70
2024-05-09T00:56:03.080Z,2.50
2024-05-09T00:56:35.835Z,2.60
2024-05-09T00:57:08.546Z,2.70
2024-05-09T00:57:41.311Z,2.70
2024-05-09T00:58:13.957Z,2.80
2024-05-09T00:58:46.673Z,2.90
2024-05-09T00:59:19.411Z,2.80
2024-05-09T00:59:52.120Z,3.00
2024-05-09T01:00:31.616Z,2.90
2024-05-09T01:00:56.979Z,2.60
2024-05-09T01:01:23.223Z,2.80
2024-05-09T01:01:56.017Z,2.90
2024-05-09T01:02:28.885Z,3.10
2024-05-09T01:03:01.943Z,2.80
2024-05-09T01:03:28.396Z,3.00
2024-05-09T01:04:01.338Z,2.90
2024-05-09T01:04:34.127Z,2.70
2024-05-09T01:05:06.892Z,2.80
2024-05-09T01:05:40.170Z,2.60
2024-05-09T01:06:06.749Z,2.80
2024-05-09T01:06:39.457Z,2.80
2024-05-09T01:07:12.126Z,2.80
2024-05-09T01:07:44.854Z,2.60
2024-05-09T01:08:17.563Z,2.80
2024-05-09T01:08:50.282Z,2.90
2024-05-09T01:09:22.946Z,2.90
2024-05-09T01:09:55.705Z,3.00
2024-05-09T01:10:34.115Z,2.60
2024-05-09T01:11:00.651Z,2.80
2024-05-09T01:11:26.971Z,2.70
2024-05-09T01:11:59.750Z,2.70
2024-05-09T01:12:32.537Z,2.70
2024-05-09T01:13:05.678Z,2.90
2024-05-09T01:13:32.027Z,3.00
2024-05-09T01:14:04.739Z,2.70
2024-05-09T01:14:37.586Z,2.80
2024-05-09T01:15:10.256Z,2.90
2024-05-09T01:15:42.988Z,2.90
2024-05-09T01:16:15.660Z,2.80
2024-05-09T01:16:48.374Z,2.90
2024-05-09T01:17:21.136Z,3.00
2024-05-09T01:17:54.165Z,2.90
2024-05-09T01:18:20.604Z,2.90
2024-05-09T01:18:51.745Z,2.60
2024-05-09T01:19:24.633Z,2.90
2024-05-09T01:19:57.306Z,3.10
2024-05-09T01:20:37.524Z,3.10
2024-05-09T01:21:01.243Z,2.80
2024-05-09T01:21:34.091Z,3.00
2024-05-09T01:22:06.767Z,3.00
2024-05-09T01:22:39.436Z,2.70
2024-05-09T01:23:12.770Z,2.90
2024-05-09T01:23:43.324Z,2.90
2024-05-09T01:24:15.991Z,2.90
2024-05-09T01:24:48.653Z,2.80
2024-05-09T01:25:21.337Z,2.90
2024-05-09T01:25:54.202Z,3.00
2024-05-09T01:26:26.893Z,3.00
2024-05-09T01:26:59.553Z,2.70
2024-05-09T01:27:32.221Z,2.50
2024-05-09T01:28:04.903Z,2.80
2024-05-09T01:28:37.578Z,2.80
2024-05-09T01:29:10.457Z,3.00
2024-05-09T01:29:43.115Z,2.80
2024-05-09T01:30:21.038Z,2.90
2024-05-09T01:30:47.898Z,2.50
2024-05-09T01:31:14.086Z,2.80
2024-05-09T01:31:46.878Z,2.70
2024-05-09T01:32:19.890Z,2.60
2024-05-09T01:32:46.271Z,2.90
2024-05-09T01:33:19.138Z,2.60
2024-05-09T01:33:51.977Z,2.90
2024-05-09T01:34:24.669Z,2.90
2024-05-09T01:34:57.360Z,2.90
2024-05-09T01:35:30.032Z,3.00
2024-05-09T01:36:02.716Z,2.80
2024-05-09T01:36:35.388Z,3.20
2024-05-09T01:37:08.060Z,2.80
2024-05-09T01:37:40.862Z,2.70
2024-05-09T01:38:14.200Z,2.90
2024-05-09T01:38:40.522Z,3.00
2024-05-09T01:39:13.222Z,3.00
2024-05-09T01:39:46.015Z,2.80
2024-05-09T01:40:25.188Z,2.80
2024-05-09T01:40:50.857Z,3.00
2024-05-09T01:41:17.063Z,2.90
2024-05-09T01:41:49.731Z,3.00
2024-05-09T01:42:22.402Z,2.80
2024-05-09T01:42:55.920Z,2.80
2024-05-09T01:43:22.102Z,3.10
2024-05-09T01:43:54.980Z,2.60
2024-05-09T01:44:27.781Z,3.20
2024-05-09T01:45:00.447Z,3.10
2024-05-09T01:45:33.273Z,3.20
2024-05-09T01:46:06.088Z,2.90
2024-05-09T01:46:37.078Z,3.10
2024-05-09T01:47:09.910Z,3.10
2024-05-09T01:47:42.931Z,2.80
2024-05-09T01:48:09.763Z,3.00
2024-05-09T01:48:36.815Z,3.10
2024-05-09T01:49:09.688Z,3.00
2024-05-09T01:49:42.436Z,2.90
2024-05-09T01:50:43.359Z,3.20
2024-05-09T01:51:10.097Z,2.90
2024-05-09T01:51:42.817Z,3.20
2024-05-09T01:52:15.497Z,3.00
2024-05-09T01:52:48.199Z,2.90
2024-05-09T01:53:20.884Z,2.80
2024-05-09T01:53:53.581Z,3.10
2024-05-09T01:54:26.265Z,2.90
2024-05-09T01:55:00.780Z,3.20
2024-05-09T01:55:28.259Z,3.10
2024-05-09T01:56:01.661Z,2.70
2024-05-09T01:56:27.924Z,2.90
2024-05-09T01:57:02.078Z,3.00
2024-05-09T01:57:28.219Z,3.10
2024-05-09T01:58:00.926Z,3.20
2024-05-09T01:58:33.691Z,2.50
2024-05-09T01:59:06.486Z,3.00
2024-05-09T01:59:39.264Z,3.00
2024-05-09T02:00:41.854Z,3.00
2024-05-09T02:01:09.613Z,2.90
2024-05-09T02:01:55.627Z,3.10
2024-05-09T02:02:08.086Z,2.90
2024-05-09T02:02:34.526Z,3.00
2024-05-09T02:03:07.450Z,3.00
2024-05-09T02:03:33.898Z,3.10
2024-05-09T02:04:07.052Z,3.20
2024-05-09T02:04:33.530Z,3.10
2024-05-09T02:05:06.486Z,3.10
2024-05-09T02:05:39.464Z,3.00
2024-05-09T02:06:12.281Z,3.10
2024-05-09T02:06:45.072Z,3.00
2024-05-09T02:07:17.712Z,3.20
2024-05-09T02:07:50.465Z,3.20
2024-05-09T02:08:23.162Z,2.90
2024-05-09T02:08:55.852Z,2.80
2024-05-09T02:09:28.513Z,3.00
2024-05-09T02:10:01.205Z,3.10
2024-05-09T02:10:33.987Z,3.00
2024-05-09T02:11:06.782Z,3.00
2024-05-09T02:11:39.726Z,3.30
2024-05-09T02:12:06.314Z,3.20
2024-05-09T02:12:32.965Z,3.40
2024-05-09T02:12:59.165Z,3.40
2024-05-09T02:13:31.969Z,3.10
2024-05-09T02:14:04.635Z,3.10
2024-05-09T02:14:37.483Z,2.80
2024-05-09T02:15:10.299Z,3.30
2024-05-09T02:15:42.965Z,3.10
2024-05-09T02:16:15.630Z,3.20
2024-05-09T02:16:48.329Z,3.10
2024-05-09T02:17:21.108Z,3.30
2024-05-09T02:17:54.067Z,3.20
2024-05-09T02:18:20.735Z,3.00
2024-05-09T02:18:53.524Z,3.20
2024-05-09T02:19:26.336Z,3.30
2024-05-09T02:19:59.027Z,3.30
2024-05-09T02:20:59.286Z,3.40
2024-05-09T02:21:31.948Z,3.10
2024-05-09T02:22:04.618Z,3.00
2024-05-09T02:22:37.313Z,3.00
2024-05-09T02:23:10.126Z,3.50
2024-05-09T02:23:42.922Z,3.10
2024-05-09T02:24:15.830Z,3.50
2024-05-09T02:24:48.466Z,3.10
2024-05-09T02:25:21.143Z,3.10
2024-05-09T02:25:53.877Z,3.20
2024-05-09T02:26:26.636Z,3.10
2024-05-09T02:26:59.351Z,3.10
2024-05-09T02:27:32.145Z,3.10
2024-05-09T02:28:04.854Z,3.10
2024-05-09T02:28:37.515Z,3.10
2024-05-09T02:29:10.355Z,3.20
2024-05-09T02:29:43.094Z,3.30
2024-05-09T02:30:22.838Z,3.50
2024-05-09T02:30:48.088Z,3.10
2024-05-09T02:31:14.247Z,3.20
2024-05-09T02:31:46.986Z,3.30
2024-05-09T02:32:19.813Z,3.20
2024-05-09T02:32:52.601Z,3.30
2024-05-09T02:33:25.570Z,3.30
2024-05-09T02:33:52.106Z,3.20
2024-05-09T02:34:18.474Z,3.20
2024-05-09T02:34:51.244Z,3.30
2024-05-09T02:35:24.061Z,3.50
2024-05-09T02:35:56.810Z,3.10
2024-05-09T02:36:29.478Z,3.10
2024-05-09T02:37:02.156Z,3.00
2024-05-09T02:37:34.848Z,3.10
2024-05-09T02:38:07.551Z,3.30
2024-05-09T02:38:40.417Z,3.10
2024-05-09T02:39:13.083Z,3.20
2024-05-09T02:39:45.772Z,3.30
2024-05-09T02:40:25.420Z,3.40
2024-05-09T02:40:50.581Z,3.30
2024-05-09T02:41:16.868Z,3.50
2024-05-09T02:41:49.559Z,3.40
2024-05-09T02:42:22.235Z,3.40
2024-05-09T02:42:54.904Z,3.30
2024-05-09T02:43:27.572Z,3.20
2024-05-09T02:44:00.291Z,3.50
2024-05-09T02:44:32.987Z,3.30
2024-05-09T02:45:05.671Z,3.30
2024-05-09T02:45:38.388Z,3.50
2024-05-09T02:46:11.068Z,3.50
2024-05-09T02:46:43.886Z,3.20
2024-05-09T02:47:16.671Z,3.40
2024-05-09T02:47:49.597Z,3.40
2024-05-09T02:48:16.260Z,3.20
2024-05-09T02:48:42.718Z,3.20
2024-05-09T02:49:15.705Z,3.70
2024-05-09T02:49:41.993Z,3.30
2024-05-09T02:50:19.411Z,3.00
2024-05-09T02:50:46.873Z,3.00
2024-05-09T02:51:13.213Z,3.20
2024-05-09T02:51:46.005Z,3.30
2024-05-09T02:52:18.805Z,3.30
2024-05-09T02:52:51.662Z,3.70
2024-05-09T02:53:25.609Z,3.50
2024-05-09T02:53:51.795Z,3.50
2024-05-09T02:54:24.600Z,3.30
2024-05-09T02:54:57.239Z,3.10
2024-05-09T02:55:29.907Z,3.40
2024-05-09T02:56:02.651Z,3.70
2024-05-09T02:56:35.423Z,3.30
2024-05-09T02:57:08.115Z,3.20
2024-05-09T02:57:40.804Z,3.60
2024-05-09T02:58:13.463Z,3.30
2024-05-09T02:58:46.226Z,3.70
2024-05-09T02:59:18.996Z,3.30
2024-05-09T02:59:51.677Z,3.30
2024-05-09T03:00:29.961Z,3.60
2024-05-09T03:00:55.739Z,3.40
2024-05-09T03:01:28.532Z,3.40
2024-05-09T03:02:01.389Z,3.40
2024-05-09T03:02:34.222Z,3.40
2024-05-09T03:03:07.336Z,3.50
2024-05-09T03:03:34.044Z,3.70
2024-05-09T03:04:00.446Z,3.40
2024-05-09T03:04:33.250Z,3.70
2024-05-09T03:05:06.081Z,3.20
2024-05-09T03:05:38.901Z,3.70
2024-05-09T03:06:11.753Z,3.30
2024-05-09T03:06:44.461Z,3.40
2024-05-09T03:07:19.748Z,3.50
2024-05-09T03:07:46.308Z,3.70
2024-05-09T03:08:19.035Z,3.40
2024-05-09T03:08:51.745Z,3.50
2024-05-09T03:09:24.428Z,3.30
2024-05-09T03:09:57.117Z,3.50
2024-05-09T03:10:35.563Z,3.40
2024-05-09T03:11:01.969Z,3.30
2024-05-09T03:11:29.087Z,3.50
2024-05-09T03:11:55.392Z,3.50
2024-05-09T03:12:28.185Z,3.40
2024-05-09T03:13:00.847Z,3.30
2024-05-09T03:13:33.506Z,3.60
2024-05-09T03:14:06.256Z,3.50
2024-05-09T03:14:38.991Z,3.50
2024-05-09T03:15:11.648Z,3.50
2024-05-09T03:15:44.512Z,3.60
2024-05-09T03:16:17.347Z,3.30
2024-05-09T03:16:50.106Z,3.50
2024-05-09T03:17:22.872Z,3.30
2024-05-09T03:17:56.193Z,3.40
2024-05-09T03:18:22.636Z,3.40
2024-05-09T03:18:55.522Z,3.50
2024-05-09T03:19:28.390Z,3.50
2024-05-09T03:20:01.171Z,4.00
2024-05-09T03:20:35.823Z,3.90
2024-05-09T03:21:03.134Z,3.80
2024-05-09T03:21:35.909Z,3.70
2024-05-09T03:22:08.581Z,3.80
2024-05-09T03:22:41.271Z,3.80
2024-05-09T03:23:14.061Z,3.50
2024-05-09T03:23:46.946Z,3.70
2024-05-09T03:24:19.681Z,3.80
2024-05-09T03:24:52.369Z,3.40
2024-05-09T03:25:25.087Z,3.70
2024-05-09T03:25:57.849Z,3.60
2024-05-09T03:26:30.623Z,3.70
2024-05-09T03:27:03.332Z,3.70
2024-05-09T03:27:36.001Z,3.50
2024-05-09T03:28:08.695Z,3.80
2024-05-09T03:28:41.955Z,3.40
2024-05-09T03:29:08.167Z,3.60
2024-05-09T03:29:40.829Z,3.20
2024-05-09T03:30:25.923Z,3.80
2024-05-09T03:30:45.608Z,3.70
2024-05-09T03:31:11.794Z,3.80
2024-05-09T03:31:44.590Z,3.70
2024-05-09T03:32:17.419Z,3.70
2024-05-09T03:32:50.231Z,3.80
2024-05-09T03:33:23.386Z,3.80
2024-05-09T03:33:54.217Z,3.60
2024-05-09T03:34:26.981Z,3.70
2024-05-09T03:34:59.657Z,3.60
2024-05-09T03:35:32.399Z,3.70
2024-05-09T03:36:08.246Z,3.80
2024-05-09T03:36:35.854Z,3.70
2024-05-09T03:37:08.522Z,3.50
2024-05-09T03:37:41.194Z,3.60
2024-05-09T03:38:14.035Z,3.80
2024-05-09T03:38:46.820Z,3.80
2024-05-09T03:39:19.494Z,3.70
2024-05-09T03:39:52.156Z,3.80
2024-05-09T03:40:28.942Z,3.80
2024-05-09T03:40:56.931Z,4.00
2024-05-09T03:41:23.202Z,3.80
2024-05-09T03:41:56.041Z,3.90
2024-05-09T03:42:28.715Z,3.90
2024-05-09T03:43:01.399Z,3.60
2024-05-09T03:43:34.090Z,3.70
2024-05-09T03:44:06.843Z,3.50
2024-05-09T03:44:39.610Z,4.20
2024-05-09T03:45:12.342Z,4.00
2024-05-09T03:45:45.031Z,3.90
2024-05-09T03:46:17.741Z,4.00
2024-05-09T03:46:50.476Z,3.60
2024-05-09T03:47:23.295Z,3.60
2024-05-09T03:47:56.212Z,3.90
2024-05-09T03:48:22.684Z,4.00
2024-05-09T03:48:55.487Z,4.00
2024-05-09T03:49:28.215Z,3.90
2024-05-09T03:50:00.975Z,3.80
2024-05-09T03:50:35.944Z,3.80
2024-05-09T03:51:03.052Z,3.90
2024-05-09T03:51:35.764Z,3.90
2024-05-09T03:52:08.445Z,3.60
2024-05-09T03:52:41.133Z,3.90
2024-05-09T03:53:14.187Z,3.50
2024-05-09T03:53:40.556Z,3.50
2024-05-09T03:54:13.229Z,3.80
2024-05-09T03:54:45.923Z,3.90
2024-05-09T03:55:18.606Z,3.80
2024-05-09T03:55:51.353Z,3.60
2024-05-09T03:56:24.086Z,3.90
2024-05-09T03:56:56.757Z,3.90
2024-05-09T03:57:29.421Z,3.90
2024-05-09T03:58:02.091Z,3.90
2024-05-09T03:58:34.792Z,3.80
2024-05-09T03:59:07.464Z,4.00
2024-05-09T03:59:40.199Z,3.70
2024-05-09T04:00:18.212Z,3.70
2024-05-09T04:00:45.062Z,3.80
2024-05-09T04:01:11.363Z,3.70
2024-05-09T04:01:44.166Z,3.50
2024-05-09T04:02:17.009Z,4.00
2024-05-09T04:02:49.749Z,3.80
2024-05-09T04:03:22.806Z,3.90
2024-05-09T04:03:49.327Z,4.00
2024-05-09T04:04:22.102Z,3.90
2024-05-09T04:04:54.882Z,3.70
2024-05-09T04:05:27.601Z,3.80
2024-05-09T04:06:00.261Z,3.70
2024-05-09T04:06:32.935Z,3.80
2024-05-09T04:07:05.604Z,3.60
2024-05-09T04:07:38.300Z,4.00
2024-05-09T04:08:11.481Z,3.70
2024-05-09T04:08:37.832Z,4.30
2024-05-09T04:09:10.496Z,3.60
2024-05-09T04:09:43.165Z,3.80
2024-05-09T04:10:24.034Z,3.80
2024-05-09T04:10:46.991Z,3.80
2024-05-09T04:11:19.771Z,3.70
2024-05-09T04:11:52.852Z,3.80
2024-05-09T04:12:19.195Z,3.80
2024-05-09T04:12:51.860Z,3.80
2024-05-09T04:13:24.539Z,3.80
2024-05-09T04:13:57.248Z,3.80
2024-05-09T04:14:30.117Z,3.90
2024-05-09T04:15:02.848Z,3.90
2024-05-09T04:15:35.524Z,4.00
2024-05-09T04:16:08.210Z,3.70
2024-05-09T04:16:40.891Z,3.80
2024-05-09T04:17:13.635Z,4.10
2024-05-09T04:17:46.490Z,4.00
2024-05-09T04:18:19.331Z,4.20
2024-05-09T04:18:52.146Z,4.00
2024-05-09T04:19:24.983Z,3.80
2024-05-09T04:19:57.807Z,3.90
2024-05-09T04:20:37.716Z,3.90
2024-05-09T04:21:02.794Z,4.00
2024-05-09T04:21:29.022Z,3.90
2024-05-09T04:22:01.755Z,4.20
2024-05-09T04:22:34.439Z,4.10
2024-05-09T04:23:08.166Z,3.90
2024-05-09T04:23:35.357Z,3.80
2024-05-09T04:24:08.117Z,3.90
2024-05-09T04:24:40.775Z,3.80
2024-05-09T04:25:13.458Z,3.80
2024-05-09T04:25:46.263Z,3.70
2024-05-09T04:26:19.030Z,4.10
2024-05-09T04:26:51.689Z,3.80
2024-05-09T04:27:24.422Z,3.90
2024-05-09T04:27:57.096Z,3.80
2024-05-09T04:28:29.787Z,3.90
2024-05-09T04:29:02.540Z,4.00
2024-05-09T04:29:35.272Z,3.80
2024-05-09T04:30:15.399Z,3.90
2024-05-09T04:30:41.578Z,4.00
2024-05-09T04:31:11.158Z,4.10
2024-05-09T04:31:43.906Z,4.00
2024-05-09T04:32:16.864Z,3.80
2024-05-09T04:32:49.819Z,3.80
2024-05-09T04:33:22.946Z,3.90
2024-05-09T04:33:49.415Z,3.90
2024-05-09T04:34:22.296Z,3.90
2024-05-09T04:34:55.032Z,4.10
2024-05-09T04:35:27.930Z,3.80
2024-05-09T04:36:00.660Z,4.20
2024-05-09T04:36:33.309Z,3.80
2024-05-09T04:37:06.080Z,4.20
2024-05-09T04:37:38.760Z,4.10
2024-05-09T04:38:11.530Z,3.90
2024-05-09T04:38:44.262Z,3.80
2024-05-09T04:39:16.930Z,3.90
2024-05-09T04:39:49.639Z,3.90
2024-05-09T04:40:28.575Z,4.00
2024-05-09T04:40:54.530Z,3.90
2024-05-09T04:41:20.926Z,4.30
2024-05-09T04:41:53.578Z,4.10
2024-05-09T04:42:26.264Z,4.00
2024-05-09T04:42:58.943Z,4.00
2024-05-09T04:43:31.627Z,4.00
2024-05-09T04:44:04.395Z,4.20
2024-05-09T04:44:37.093Z,3.80
2024-05-09T04:45:09.746Z,3.90
2024-05-09T04:45:42.463Z,4.00
2024-05-09T04:46:15.116Z,4.10
2024-05-09T04:46:47.856Z,4.30
2024-05-09T04:47:20.663Z,4.20
2024-05-09T04:47:53.628Z,4.30
2024-05-09T04:48:20.155Z,4.00
2024-05-09T04:48:53.123Z,4.30
2024-05-09T04:49:25.880Z,4.20
2024-05-09T04:49:58.743Z,4.20
2024-05-09T04:50:36.708Z,4.20
2024-05-09T04:51:03.687Z,3.90
2024-05-09T04:51:29.886Z,4.00
2024-05-09T04:52:02.562Z,4.40
2024-05-09T04:52:35.256Z,4.20
2024-05-09T04:53:09.565Z,3.90
2024-05-09T04:53:39.133Z,4.30
2024-05-09T04:54:22.216Z,4.10
2024-05-09T04:54:44.958Z,4.20
2024-05-09T04:55:11.119Z,4.50
2024-05-09T04:55:43.860Z,4.10
2024-05-09T04:56:16.576Z,4.20
2024-05-09T04:56:49.287Z,3.90
2024-05-09T04:57:21.982Z,4.50
2024-05-09T04:57:54.694Z,3.90
2024-05-09T04:58:27.389Z,4.10
2024-05-09T04:59:00.136Z,4.20
2024-05-09T04:59:32.925Z,4.30
2024-05-09T05:00:09.429Z,4.20
2024-05-09T05:00:38.869Z,4.00
2024-05-09T05:01:08.859Z,4.00
2024-05-09T05:01:41.553Z,4.20
2024-05-09T05:02:14.345Z,4.10
2024-05-09T05:02:47.180Z,4.20
2024-05-09T05:03:20.285Z,4.10
2024-05-09T05:03:51.200Z,4.30
2024-05-09T05:04:24.028Z,4.20
2024-05-09T05:04:56.912Z,4.00
2024-05-09T05:05:29.731Z,4.20
2024-05-09T05:06:02.572Z,3.70
2024-05-09T05:06:35.313Z,4.20
2024-05-09T05:07:07.979Z,4.30
2024-05-09T05:07:40.662Z,4.40
2024-05-09T05:08:13.979Z,4.50
2024-05-09T05:08:44.456Z,4.10
2024-05-09T05:09:17.204Z,3.80
2024-05-09T05:09:49.945Z,4.20
2024-05-09T05:10:32.885Z,3.90
2024-05-09T05:10:54.775Z,4.00
2024-05-09T05:11:21.005Z,4.20
2024-05-09T05:11:53.824Z,3.80
2024-05-09T05:12:24.949Z,4.00
2024-05-09T05:12:51.582Z,4.20
2024-05-09T05:13:24.906Z,4.30
2024-05-09T05:13:51.598Z,4.40
2024-05-09T05:14:24.349Z,4.20
2024-05-09T05:14:57.431Z,4.20
2024-05-09T05:15:23.605Z,4.00
2024-05-09T05:15:57.771Z,4.20
2024-05-09T05:16:24.634Z,4.00
2024-05-09T05:16:57.358Z,4.10
2024-05-09T05:17:30.298Z,4.10
2024-05-09T05:17:56.750Z,4.10
2024-05-09T05:18:29.728Z,4.10
2024-05-09T05:19:02.513Z,4.10
2024-05-09T05:19:35.444Z,4.00
2024-05-09T05:20:08.654Z,4.40
2024-05-09T05:20:36.652Z,4.30
2024-05-09T05:21:09.402Z,3.80
2024-05-09T05:21:42.079Z,4.30
2024-05-09T05:22:14.751Z,4.20
2024-05-09T05:22:47.516Z,4.40
2024-05-09T05:23:20.466Z,4.40
2024-05-09T05:23:46.689Z,4.30
2024-05-09T05:24:19.356Z,4.30
2024-05-09T05:24:52.039Z,4.40
2024-05-09T05:25:24.695Z,4.00
2024-05-09T05:25:57.463Z,4.10
2024-05-09T05:26:30.216Z,4.10
2024-05-09T05:27:02.892Z,4.30
2024-05-09T05:27:35.592Z,3.90
2024-05-09T05:28:08.259Z,4.00
2024-05-09T05:28:40.955Z,3.80
2024-05-09T05:29:13.728Z,4.20
2024-05-09T05:29:46.472Z,4.20
2024-05-09T05:30:25.057Z,4.20
2024-05-09T05:30:51.242Z,4.30
2024-05-09T05:31:17.450Z,4.30
2024-05-09T05:31:50.245Z,4.00
2024-05-09T05:32:23.107Z,4.00
2024-05-09T05:32:56.182Z,4.20
2024-05-09T05:33:23.251Z,4.00
2024-05-09T05:33:53.655Z,4.10
2024-05-09T05:34:26.402Z,4.40
2024-05-09T05:34:59.233Z,4.00
2024-05-09T05:35:31.987Z,3.90
2024-05-09T05:36:04.713Z,4.30
2024-05-09T05:36:37.443Z,3.80
2024-05-09T05:37:10.139Z,4.10
2024-05-09T05:37:42.834Z,4.30
2024-05-09T05:38:15.749Z,3.90
2024-05-09T05:38:48.700Z,4.20
2024-05-09T05:39:21.437Z,4.20
2024-05-09T05:39:52.517Z,4.10
2024-05-09T05:40:32.982Z,4.40
2024-05-09T05:40:57.319Z,4.20
2024-05-09T05:41:23.524Z,4.10
2024-05-09T05:41:56.283Z,4.00
2024-05-09T05:42:28.941Z,3.60
2024-05-09T05:43:01.631Z,4.00
2024-05-09T05:43:34.428Z,4.00
2024-05-09T05:44:07.087Z,4.20
2024-05-09T05:44:39.788Z,4.10
2024-05-09T05:45:12.483Z,4.00
2024-05-09T05:45:45.179Z,3.90
2024-05-09T05:46:17.978Z,4.20
2024-05-09T05:46:50.634Z,3.90
2024-05-09T05:47:23.394Z,4.10
2024-05-09T05:47:56.484Z,4.10
2024-05-09T05:48:23.183Z,3.90
2024-05-09T05:48:49.659Z,4.00
2024-05-09T05:49:22.623Z,4.00
2024-05-09T05:49:48.965Z,3.80
2024-05-09T05:50:27.828Z,4.00
2024-05-09T05:50:53.737Z,4.10
2024-05-09T05:51:19.973Z,4.20
2024-05-09T05:51:52.686Z,4.30
2024-05-09T05:52:25.531Z,3.80
2024-05-09T05:52:58.242Z,3.90
2024-05-09T05:53:30.945Z,4.30
2024-05-09T05:54:03.609Z,4.00
2024-05-09T05:54:36.278Z,4.20
2024-05-09T05:55:08.970Z,3.90
2024-05-09T05:55:41.845Z,3.90
2024-05-09T05:56:12.783Z,4.10
2024-05-09T05:56:45.545Z,4.10
2024-05-09T05:57:18.294Z,4.20
2024-05-09T05:57:50.952Z,4.30
2024-05-09T05:58:23.635Z,3.80
2024-05-09T05:58:56.508Z,3.80
2024-05-09T05:59:29.258Z,3.90
2024-05-09T06:00:02.202Z,4.00
2024-05-09T06:00:35.267Z,3.70
2024-05-09T06:01:01.138Z,4.30
2024-05-09T06:01:27.515Z,4.20
2024-05-09T06:02:00.425Z,4.40
2024-05-09T06:02:33.215Z,4.40
2024-05-09T06:03:06.338Z,4.30
2024-05-09T06:03:37.245Z,4.10
2024-05-09T06:04:10.139Z,3.80
2024-05-09T06:04:42.886Z,3.70
2024-05-09T06:05:15.728Z,3.90
2024-05-09T06:05:47.061Z,3.90
2024-05-09T06:06:13.382Z,4.10
2024-05-09T06:06:46.025Z,4.00
2024-05-09T06:07:18.712Z,3.90
2024-05-09T06:07:51.423Z,3.60
2024-05-09T06:08:27.098Z,4.10
2024-05-09T06:08:54.999Z,3.90
2024-05-09T06:09:27.685Z,4.10
2024-05-09T06:10:00.371Z,4.10
2024-05-09T06:10:38.350Z,3.70
2024-05-09T06:11:05.190Z,4.00
2024-05-09T06:11:31.759Z,3.90
2024-05-09T06:12:02.695Z,3.90
2024-05-09T06:12:35.370Z,4.00
2024-05-09T06:13:08.061Z,4.40
2024-05-09T06:13:40.714Z,3.90
2024-05-09T06:14:13.533Z,3.60
2024-05-09T06:14:46.291Z,3.70
2024-05-09T06:15:17.384Z,3.90
2024-05-09T06:15:50.056Z,3.70
2024-05-09T06:16:22.722Z,4.00
2024-05-09T06:16:58.052Z,4.20
2024-05-09T06:17:24.608Z,4.00
2024-05-09T06:17:51.008Z,3.80
2024-05-09T06:18:23.987Z,3.90
2024-05-09T06:18:50.529Z,3.90
2024-05-09T06:19:23.448Z,4.30
2024-05-09T06:19:56.493Z,3.60
2024-05-09T06:20:35.288Z,4.00
2024-05-09T06:21:01.325Z,3.90
2024-05-09T06:21:27.581Z,3.90
2024-05-09T06:22:00.257Z,3.90
2024-05-09T06:22:31.365Z,3.80
2024-05-09T06:23:04.151Z,3.50
2024-05-09T06:23:36.968Z,3.70
2024-05-09T06:24:09.640Z,3.40
2024-05-09T06:24:42.977Z,3.70
2024-05-09T06:25:09.131Z,3.70
2024-05-09T06:25:41.903Z,3.70
2024-05-09T06:26:14.793Z,3.80
2024-05-09T06:26:47.473Z,3.60
2024-05-09T06:27:20.283Z,3.80
2024-05-09T06:27:52.942Z,3.80
2024-05-09T06:28:25.630Z,3.40
2024-05-09T06:28:58.378Z,3.80
2024-05-09T06:29:31.282Z,3.70
2024-05-09T06:29:57.587Z,3.80
2024-05-09T06:30:37.807Z,3.70
2024-05-09T06:31:02.466Z,4.00
2024-05-09T06:31:28.625Z,3.80
2024-05-09T06:32:01.428Z,3.70
2024-05-09T06:32:34.331Z,3.80
2024-05-09T06:33:05.952Z,3.80
2024-05-09T06:33:32.825Z,3.80
2024-05-09T06:33:59.365Z,3.60
2024-05-09T06:34:32.423Z,3.50
2024-05-09T06:34:58.687Z,3.30
2024-05-09T06:35:31.629Z,3.80
2024-05-09T06:35:58.010Z,3.50
2024-05-09T06:36:31.491Z,4.00
2024-05-09T06:36:57.643Z,3.70
2024-05-09T06:37:30.432Z,3.60
2024-05-09T06:38:03.097Z,3.40
2024-05-09T06:38:35.887Z,3.70
2024-05-09T06:39:08.637Z,3.90
2024-05-09T06:39:41.319Z,3.80
2024-05-09T06:40:17.472Z,3.70
2024-05-09T06:40:44.705Z,4.00
2024-05-09T06:41:11.171Z,4.00
2024-05-09T06:41:44.032Z,3.70
2024-05-09T06:42:16.712Z,3.40
2024-05-09T06:42:49.386Z,3.80
2024-05-09T06:43:22.050Z,3.60
2024-05-09T06:43:54.818Z,4.00
2024-05-09T06:44:27.586Z,3.40
2024-05-09T06:45:00.385Z,3.50
2024-05-09T06:45:33.034Z,3.80
2024-05-09T06:46:05.853Z,3.40
2024-05-09T06:46:38.518Z,3.50
2024-05-09T06:47:11.280Z,3.60
2024-05-09T06:47:44.160Z,3.30
2024-05-09T06:48:17.044Z,3.20
2024-05-09T06:48:50.023Z,3.30
2024-05-09T06:49:22.857Z,3.30
2024-05-09T06:49:55.587Z,3.80
2024-05-09T06:50:35.277Z,3.50
2024-05-09T06:51:00.386Z,3.50
2024-05-09T06:51:26.569Z,3.20
2024-05-09T06:51:59.263Z,3.50
2024-05-09T06:52:32.426Z,3.30
2024-05-09T06:52:58.633Z,3.20
2024-05-09T06:53:31.308Z,3.70
2024-05-09T06:54:04.113Z,3.40
2024-05-09T06:54:36.783Z,3.60
2024-05-09T06:55:09.446Z,3.50
2024-05-09T06:55:42.121Z,3.10
2024-05-09T06:56:14.850Z,3.30
2024-05-09T06:56:47.543Z,3.00
2024-05-09T06:57:20.331Z,3.20
2024-05-09T06:57:53.008Z,3.10
2024-05-09T06:58:26.173Z,3.40
2024-05-09T06:58:52.510Z,3.20
2024-05-09T06:59:25.261Z,3.20
2024-05-09T06:59:57.934Z,3.50
2024-05-09T07:00:38.174Z,3.20
2024-05-09T07:01:02.753Z,3.10
2024-05-09T07:01:29.008Z,3.20
2024-05-09T07:02:01.745Z,3.00
2024-05-09T07:02:34.518Z,3.30
2024-05-09T07:03:07.412Z,2.90
2024-05-09T07:03:40.469Z,3.20
2024-05-09T07:04:13.486Z,3.10
2024-05-09T07:04:39.854Z,3.10
2024-05-09T07:05:12.700Z,3.40